createdAt,value
2017-04-23T00:00:12.892Z,102036.54
2017-04-23T00:01:11.527Z,102037.59
2017-04-23T00:02:10.402Z,102041.77
2017-04-23T00:03:08.890Z,102041.59
2017-04-23T00:04:07.470Z,102042.59
2017-04-23T00:05:06.052Z,102033.67
2017-04-23T00:06:04.622Z,102041.25
2017-04-23T00:07:03.226Z,102037.37
2017-04-23T00:08:02.153Z,102032.97
2017-04-23T00:09:00.686Z,102032.86
2017-04-23T00:09:59.295Z,102036.33
2017-04-23T00:10:57.803Z,102041.28
2017-04-23T00:11:56.339Z,102041.09
2017-04-23T00:12:54.896Z,102035.86
2017-04-23T00:13:53.474Z,102033.81
2017-04-23T00:14:52.031Z,102030.21
2017-04-23T00:15:50.675Z,102027.66
2017-04-23T00:16:49.311Z,102033.52
2017-04-23T00:17:47.949Z,102033.41
2017-04-23T00:18:46.747Z,102034.85
2017-04-23T00:19:45.312Z,102035.45
2017-04-23T00:20:43.914Z,102031.66
2017-04-23T00:21:42.444Z,102033.41
2017-04-23T00:22:40.996Z,102031.28
2017-04-23T00:23:39.510Z,102027.28
2017-04-23T00:24:38.084Z,102032.71
2017-04-23T00:25:36.683Z,102025.84
2017-04-23T00:26:35.328Z,102025.95
2017-04-23T00:27:34.042Z,102027.59
2017-04-23T00:28:32.550Z,102028.19
2017-04-23T00:29:31.361Z,102024.93
2017-04-23T00:30:29.936Z,102030.36
2017-04-23T00:31:28.568Z,102022.27
2017-04-23T00:32:27.193Z,102022.97
2017-04-23T00:33:25.725Z,102024.62
2017-04-23T00:34:24.264Z,102024.51
2017-04-23T00:35:22.884Z,102021.14
2017-04-23T00:36:21.428Z,102025.84
2017-04-23T00:37:19.921Z,102018.48
2017-04-23T00:38:18.536Z,102024.01
2017-04-23T00:39:17.094Z,102024.02
2017-04-23T00:40:15.651Z,102023.80
2017-04-23T00:41:14.188Z,102020.30
2017-04-23T00:42:12.701Z,102026.86
2017-04-23T00:43:11.302Z,102015.50
2017-04-23T00:44:09.827Z,102020.83
2017-04-23T00:45:08.563Z,102019.81
2017-04-23T00:46:07.191Z,102019.19
2017-04-23T00:47:05.759Z,102019.39
2017-04-23T00:48:04.243Z,102021.43
2017-04-23T00:49:02.742Z,102014.17
2017-04-23T00:50:01.355Z,102017.95
2017-04-23T00:50:59.948Z,102024.22
2017-04-23T00:51:58.439Z,102020.13
2017-04-23T00:52:57.027Z,102014.89
2017-04-23T00:53:55.780Z,102018.58
2017-04-23T00:54:54.402Z,102012.14
2017-04-23T00:55:52.983Z,102012.23
2017-04-23T00:56:51.521Z,102013.25
2017-04-23T00:57:50.083Z,102016.51
2017-04-23T00:58:48.653Z,102011.08
2017-04-23T00:59:47.183Z,102013.25
2017-04-23T01:00:46.087Z,102011.70
2017-04-23T01:01:44.663Z,102012.03
2017-04-23T01:02:43.251Z,102012.33
2017-04-23T01:03:41.930Z,102006.78
2017-04-23T01:04:40.543Z,102010.16
2017-04-23T01:05:39.151Z,102009.15
2017-04-23T01:06:37.739Z,102008.13
2017-04-23T01:07:36.567Z,102010.48
2017-04-23T01:08:35.119Z,102009.25
2017-04-23T01:09:33.738Z,102010.57
2017-04-23T01:10:32.365Z,102014.98
2017-04-23T01:11:31.011Z,102007.19
2017-04-23T01:12:29.651Z,102009.16
2017-04-23T01:13:28.179Z,102010.66
2017-04-23T01:14:26.770Z,102007.39
2017-04-23T01:15:25.394Z,102003.21
2017-04-23T01:16:24.057Z,102003.67
2017-04-23T01:17:22.939Z,102004.92
2017-04-23T01:18:21.547Z,102006.58
2017-04-23T01:19:20.132Z,102003.22
2017-04-23T01:20:18.651Z,102000.84
2017-04-23T01:21:17.175Z,102005.05
2017-04-23T01:22:15.903Z,101998.27
2017-04-23T01:23:14.458Z,101996.23
2017-04-23T01:24:12.991Z,101998.88
2017-04-23T01:25:11.539Z,102009.44
2017-04-23T01:26:10.272Z,102001.34
2017-04-23T01:27:08.815Z,102002.27
2017-04-23T01:28:07.359Z,102001.95
2017-04-23T01:29:05.858Z,102003.06
2017-04-23T01:30:04.407Z,101998.67
2017-04-23T01:31:02.985Z,102004.62
2017-04-23T01:32:01.619Z,102006.07
2017-04-23T01:33:00.241Z,102008.19
2017-04-23T01:33:58.956Z,102011.58
2017-04-23T01:34:57.547Z,102006.55
2017-04-23T01:35:56.255Z,102005.50
2017-04-23T01:36:54.863Z,102004.50
2017-04-23T01:37:53.380Z,102005.94
2017-04-23T01:38:52.183Z,102006.51
2017-04-23T01:39:50.722Z,102005.09
2017-04-23T01:40:49.257Z,102006.74
2017-04-23T01:41:47.767Z,102003.27
2017-04-23T01:42:46.280Z,101998.54
2017-04-23T01:43:44.821Z,102005.29
2017-04-23T01:44:43.379Z,102002.59
2017-04-23T01:45:41.931Z,102007.11
2017-04-23T01:46:40.446Z,102005.29
2017-04-23T01:47:38.997Z,102003.51
2017-04-23T01:48:37.554Z,102006.80
2017-04-23T01:49:36.289Z,102003.54
2017-04-23T01:50:34.811Z,102007.54
2017-04-23T01:51:33.408Z,102007.20
2017-04-23T01:52:32.020Z,102007.38
2017-04-23T01:53:30.581Z,102005.54
2017-04-23T01:54:29.110Z,102006.19
2017-04-23T01:55:27.715Z,101999.30
2017-04-23T01:56:26.264Z,102007.69
2017-04-23T01:57:24.849Z,102006.67
2017-04-23T01:58:23.367Z,102006.94
2017-04-23T01:59:21.927Z,102006.36
2017-04-23T02:00:20.693Z,102010.17
2017-04-23T02:01:19.266Z,102005.84
2017-04-23T02:02:17.786Z,102009.00
2017-04-23T02:03:16.332Z,102006.26
2017-04-23T02:04:14.948Z,102009.59
2017-04-23T02:05:13.604Z,102005.60
2017-04-23T02:06:12.170Z,102005.02
2017-04-23T02:07:10.691Z,102009.06
2017-04-23T02:08:09.312Z,102006.47
2017-04-23T02:09:07.846Z,102007.11
2017-04-23T02:10:06.374Z,102003.05
2017-04-23T02:11:05.208Z,102005.12
2017-04-23T02:12:03.770Z,101996.55
2017-04-23T02:13:02.347Z,102002.49
2017-04-23T02:14:00.871Z,102000.27
2017-04-23T02:14:59.440Z,101999.28
2017-04-23T02:15:57.988Z,102001.91
2017-04-23T02:16:56.536Z,102001.67
2017-04-23T02:17:55.083Z,102004.86
2017-04-23T02:18:53.622Z,102004.27
2017-04-23T02:19:52.211Z,102002.58
2017-04-23T02:20:50.860Z,102003.39
2017-04-23T02:21:49.602Z,102000.52
2017-04-23T02:22:48.124Z,102006.74
2017-04-23T02:23:46.644Z,102006.79
2017-04-23T02:24:45.211Z,102003.17
2017-04-23T02:25:43.767Z,102006.33
2017-04-23T02:26:42.343Z,102010.09
2017-04-23T02:27:40.941Z,102002.17
2017-04-23T02:28:39.468Z,102002.32
2017-04-23T02:29:38.017Z,102001.81
2017-04-23T02:30:36.558Z,102006.27
2017-04-23T02:31:35.060Z,102004.23
2017-04-23T02:32:33.796Z,102004.02
2017-04-23T02:33:32.343Z,102005.30
2017-04-23T02:34:30.988Z,102005.05
2017-04-23T02:35:29.484Z,102009.60
2017-04-23T02:36:28.086Z,102003.94
2017-04-23T02:37:26.636Z,102005.06
2017-04-23T02:38:25.195Z,102003.02
2017-04-23T02:39:23.697Z,102004.06
2017-04-23T02:40:22.278Z,102001.41
2017-04-23T02:41:20.784Z,102001.69
2017-04-23T02:42:19.303Z,102008.27
2017-04-23T02:43:18.208Z,101997.87
2017-04-23T02:44:16.726Z,102004.24
2017-04-23T02:45:15.222Z,102000.64
2017-04-23T02:46:13.751Z,102004.36
2017-04-23T02:47:12.275Z,102006.36
2017-04-23T02:48:10.926Z,102011.48
2017-04-23T02:49:09.482Z,102009.44
2017-04-23T02:50:08.197Z,102014.32
2017-04-23T02:51:06.887Z,102007.38
2017-04-23T02:52:05.428Z,102003.31
2017-04-23T02:53:03.929Z,102007.80
2017-04-23T02:54:02.503Z,102007.79
2017-04-23T02:55:01.050Z,102008.98
2017-04-23T02:55:59.707Z,102004.11
2017-04-23T02:56:58.294Z,102008.05
2017-04-23T02:57:56.815Z,102006.30
2017-04-23T02:58:55.368Z,102002.65
2017-04-23T02:59:54.157Z,102005.34
2017-04-23T03:00:52.667Z,102009.09
2017-04-23T03:01:51.206Z,102006.17
2017-04-23T03:02:49.748Z,102007.38
2017-04-23T03:03:48.359Z,102006.04
2017-04-23T03:04:46.959Z,102008.39
2017-04-23T03:05:45.927Z,102011.98
2017-04-23T03:06:44.459Z,102009.44
2017-04-23T03:07:42.997Z,102007.21
2017-04-23T03:08:41.590Z,102008.19
2017-04-23T03:09:40.158Z,102002.38
2017-04-23T03:10:38.674Z,102012.91
2017-04-23T03:11:37.603Z,102012.34
2017-04-23T03:12:36.197Z,102012.26
2017-04-23T03:13:34.850Z,102007.13
2017-04-23T03:14:33.523Z,102011.05
2017-04-23T03:15:32.055Z,102007.62
2017-04-23T03:16:30.776Z,102007.30
2017-04-23T03:17:29.324Z,102010.75
2017-04-23T03:18:27.834Z,102004.84
2017-04-23T03:19:26.345Z,102007.09
2017-04-23T03:20:24.867Z,102004.11
2017-04-23T03:21:23.374Z,102003.69
2017-04-23T03:22:22.140Z,102008.16
2017-04-23T03:23:20.645Z,102005.88
2017-04-23T03:24:19.159Z,102006.39
2017-04-23T03:25:17.646Z,102008.72
2017-04-23T03:26:16.182Z,102003.56
2017-04-23T03:27:14.707Z,102001.57
2017-04-23T03:28:13.238Z,102003.73
2017-04-23T03:29:11.792Z,102005.19
2017-04-23T03:30:10.345Z,102008.99
2017-04-23T03:31:08.934Z,102002.28
2017-04-23T03:32:07.474Z,102002.38
2017-04-23T03:33:06.287Z,102004.69
2017-04-23T03:34:04.846Z,102001.91
2017-04-23T03:35:03.402Z,102007.00
2017-04-23T03:36:01.923Z,102009.58
2017-04-23T03:37:00.515Z,102005.06
2017-04-23T03:37:59.033Z,102008.23
2017-04-23T03:38:57.618Z,102006.30
2017-04-23T03:39:56.310Z,102010.28
2017-04-23T03:40:54.887Z,102012.00
2017-04-23T03:41:53.447Z,102015.69
2017-04-23T03:42:51.956Z,102009.09
2017-04-23T03:43:50.979Z,102016.87
2017-04-23T03:44:49.543Z,102012.34
2017-04-23T03:45:48.125Z,102013.69
2017-04-23T03:46:46.681Z,102012.02
2017-04-23T03:47:45.199Z,102013.63
2017-04-23T03:48:43.714Z,102014.05
2017-04-23T03:49:42.297Z,102011.30
2017-04-23T03:50:40.906Z,102009.86
2017-04-23T03:51:39.439Z,102005.92
2017-04-23T03:52:38.008Z,102006.58
2017-04-23T03:53:36.543Z,102010.64
2017-04-23T03:54:35.099Z,102006.86
2017-04-23T03:55:33.611Z,102007.70
2017-04-23T03:56:32.250Z,102018.48
2017-04-23T03:57:30.795Z,102020.11
2017-04-23T03:58:29.323Z,102015.86
2017-04-23T03:59:28.042Z,102015.08
2017-04-23T04:00:26.534Z,102004.55
2017-04-23T04:01:25.099Z,102004.75
2017-04-23T04:02:23.667Z,102004.24
2017-04-23T04:03:22.308Z,102008.08
2017-04-23T04:04:20.892Z,102013.83
2017-04-23T04:05:19.451Z,102006.02
2017-04-23T04:06:17.957Z,102006.80
2017-04-23T04:07:16.468Z,102003.11
2017-04-23T04:08:15.035Z,102003.80
2017-04-23T04:09:13.664Z,102001.23
2017-04-23T04:10:12.437Z,102011.81
2017-04-23T04:11:10.954Z,102016.94
2017-04-23T04:12:09.474Z,102018.70
2017-04-23T04:13:08.004Z,102021.64
2017-04-23T04:14:06.508Z,102020.55
2017-04-23T04:15:05.156Z,102016.09
2017-04-23T04:16:03.779Z,102021.83
2017-04-23T04:17:03.230Z,102026.18
2017-04-23T04:18:01.738Z,102022.38
2017-04-23T04:19:00.246Z,102016.83
2017-04-23T04:19:58.770Z,102023.27
2017-04-23T04:20:57.354Z,102025.37
2017-04-23T04:21:55.906Z,102025.20
2017-04-23T04:22:54.442Z,102020.81
2017-04-23T04:23:52.969Z,102029.59
2017-04-23T04:24:51.471Z,102027.67
2017-04-23T04:25:50.019Z,102022.11
2017-04-23T04:26:48.559Z,102022.28
2017-04-23T04:27:47.134Z,102018.59
2017-04-23T04:28:45.659Z,102020.06
2017-04-23T04:29:44.222Z,102023.27
2017-04-23T04:30:42.931Z,102020.51
2017-04-23T04:31:41.448Z,102022.39
2017-04-23T04:32:40.127Z,102027.61
2017-04-23T04:33:38.803Z,102028.18
2017-04-23T04:34:37.326Z,102028.20
2017-04-23T04:35:35.852Z,102034.84
2017-04-23T04:36:34.362Z,102031.83
2017-04-23T04:37:32.875Z,102029.80
2017-04-23T04:38:31.399Z,102033.38
2017-04-23T04:39:29.899Z,102030.09
2017-04-23T04:40:28.430Z,102030.80
2017-04-23T04:41:27.104Z,102030.00
2017-04-23T04:42:25.732Z,102034.13
2017-04-23T04:43:24.742Z,102030.51
2017-04-23T04:44:23.235Z,102032.63
2017-04-23T04:45:21.729Z,102038.84
2017-04-23T04:46:20.276Z,102038.02
2017-04-23T04:47:18.922Z,102039.94
2017-04-23T04:48:17.441Z,102043.93
2017-04-23T04:49:16.022Z,102044.19
2017-04-23T04:50:14.555Z,102052.24
2017-04-23T04:51:13.164Z,102049.39
2017-04-23T04:52:11.678Z,102047.14
2017-04-23T04:53:10.188Z,102051.00
2017-04-23T04:54:08.943Z,102046.69
2017-04-23T04:55:07.458Z,102049.14
2017-04-23T04:56:05.986Z,102047.24
2017-04-23T04:57:04.471Z,102045.64
2017-04-23T04:58:03.065Z,102042.40
2017-04-23T04:59:01.607Z,102048.30
2017-04-23T05:00:00.139Z,102050.49
2017-04-23T05:00:58.779Z,102048.54
2017-04-23T05:01:57.317Z,102050.41
2017-04-23T05:02:55.829Z,102050.41
2017-04-23T05:03:54.339Z,102050.51
2017-04-23T05:04:53.338Z,102050.05
2017-04-23T05:05:51.924Z,102049.25
2017-04-23T05:06:50.584Z,102048.83
2017-04-23T05:07:49.092Z,102051.20
2017-04-23T05:08:47.615Z,102045.46
2017-04-23T05:09:46.143Z,102050.08
2017-04-23T05:10:44.703Z,102049.55
2017-04-23T05:11:43.260Z,102055.22
2017-04-23T05:12:41.763Z,102053.50
2017-04-23T05:13:40.384Z,102055.23
2017-04-23T05:14:38.956Z,102049.05
2017-04-23T05:15:37.950Z,102049.06
2017-04-23T05:16:36.484Z,102053.16
2017-04-23T05:17:35.056Z,102051.38
2017-04-23T05:18:33.855Z,102054.86
2017-04-23T05:19:32.395Z,102051.83
2017-04-23T05:20:30.905Z,102054.91
2017-04-23T05:21:29.487Z,102057.88
2017-04-23T05:22:28.166Z,102057.06
2017-04-23T05:23:26.742Z,102059.00
2017-04-23T05:24:25.279Z,102063.22
2017-04-23T05:25:23.887Z,102064.07
2017-04-23T05:26:22.446Z,102063.27
2017-04-23T05:27:20.959Z,102065.47
2017-04-23T05:28:19.534Z,102067.21
2017-04-23T05:29:18.075Z,102066.66
2017-04-23T05:30:16.600Z,102061.98
2017-04-23T05:31:15.315Z,102063.53
2017-04-23T05:32:13.842Z,102069.57
2017-04-23T05:33:12.374Z,102065.73
2017-04-23T05:34:10.924Z,102066.55
2017-04-23T05:35:09.498Z,102067.60
2017-04-23T05:36:07.994Z,102070.30
2017-04-23T05:37:06.930Z,102071.68
2017-04-23T05:38:05.533Z,102066.13
2017-04-23T05:39:04.259Z,102069.55
2017-04-23T05:40:02.784Z,102070.92
2017-04-23T05:41:01.292Z,102073.43
2017-04-23T05:42:00.150Z,102070.15
2017-04-23T05:42:58.731Z,102066.36
2017-04-23T05:43:57.368Z,102063.06
2017-04-23T05:44:55.888Z,102070.53
2017-04-23T05:45:54.410Z,102071.84
2017-04-23T05:46:53.018Z,102069.41
2017-04-23T05:47:51.560Z,102070.22
2017-04-23T05:48:50.097Z,102069.70
2017-04-23T05:49:48.795Z,102073.08
2017-04-23T05:50:47.310Z,102079.24
2017-04-23T05:51:45.823Z,102074.86
2017-04-23T05:52:44.343Z,102079.65
2017-04-23T05:53:43.047Z,102077.44
2017-04-23T05:54:41.531Z,102075.25
2017-04-23T05:55:40.050Z,102080.11
2017-04-23T05:56:38.581Z,102079.16
2017-04-23T05:57:37.200Z,102081.63
2017-04-23T05:58:35.808Z,102086.45
2017-04-23T05:59:34.548Z,102087.58
2017-04-23T06:00:33.074Z,102094.24
2017-04-23T06:01:31.603Z,102089.03
2017-04-23T06:02:30.139Z,102090.77
2017-04-23T06:03:28.941Z,102093.72
2017-04-23T06:04:27.504Z,102091.78
2017-04-23T06:05:26.286Z,102090.97
2017-04-23T06:06:24.811Z,102091.05
2017-04-23T06:07:24.641Z,102095.47
2017-04-23T06:08:23.268Z,102093.42
2017-04-23T06:09:21.868Z,102096.28
2017-04-23T06:10:20.370Z,102100.28
2017-04-23T06:11:18.915Z,102094.16
2017-04-23T06:12:17.690Z,102092.83
2017-04-23T06:13:16.196Z,102096.20
2017-04-23T06:14:14.760Z,102097.05
2017-04-23T06:15:13.372Z,102092.84
2017-04-23T06:16:12.058Z,102098.48
2017-04-23T06:17:10.546Z,102090.89
2017-04-23T06:18:09.060Z,102097.85
2017-04-23T06:19:07.564Z,102089.45
2017-04-23T06:20:06.087Z,102099.81
2017-04-23T06:21:04.950Z,102100.49
2017-04-23T06:22:03.571Z,102098.56
2017-04-23T06:23:02.099Z,102100.53
2017-04-23T06:24:00.667Z,102093.34
2017-04-23T06:24:59.248Z,102097.25
2017-04-23T06:25:57.774Z,102099.80
2017-04-23T06:26:56.476Z,102101.97
2017-04-23T06:27:55.027Z,102101.66
2017-04-23T06:28:53.595Z,102099.61
2017-04-23T06:29:52.107Z,102102.27
2017-04-23T06:30:50.624Z,102103.91
2017-04-23T06:31:49.127Z,102101.14
2017-04-23T06:32:47.866Z,102098.77
2017-04-23T06:33:46.360Z,102097.33
2017-04-23T06:34:44.855Z,102106.06
2017-04-23T06:35:43.546Z,102107.80
2017-04-23T06:36:42.087Z,102103.09
2017-04-23T06:37:40.716Z,102105.13
2017-04-23T06:38:39.268Z,102107.20
2017-04-23T06:39:37.789Z,102106.67
2017-04-23T06:40:36.322Z,102106.67
2017-04-23T06:41:34.874Z,102108.52
2017-04-23T06:42:34.070Z,102101.23
2017-04-23T06:43:32.703Z,102113.43
2017-04-23T06:44:31.466Z,102110.67
2017-04-23T06:45:30.050Z,102116.30
2017-04-23T06:46:28.627Z,102112.84
2017-04-23T06:47:27.241Z,102111.89
2017-04-23T06:48:26.068Z,102114.06
2017-04-23T06:49:24.681Z,102115.60
2017-04-23T06:50:23.227Z,102113.34
2017-04-23T06:51:21.847Z,102112.33
2017-04-23T06:52:20.451Z,102113.24
2017-04-23T06:53:19.510Z,102112.61
2017-04-23T06:54:18.113Z,102115.06
2017-04-23T06:55:17.263Z,102112.54
2017-04-23T06:56:15.838Z,102115.80
2017-04-23T06:57:14.468Z,102116.33
2017-04-23T06:58:12.999Z,102113.14
2017-04-23T06:59:11.551Z,102121.73
2017-04-23T07:00:10.076Z,102115.38
2017-04-23T07:01:08.591Z,102114.16
2017-04-23T07:02:07.138Z,102112.02
2017-04-23T07:03:05.851Z,102112.33
2017-04-23T07:04:04.687Z,102112.82
2017-04-23T07:05:03.371Z,102109.45
2017-04-23T07:06:02.155Z,102111.48
2017-04-23T07:07:00.778Z,102110.16
2017-04-23T07:07:59.590Z,102111.08
2017-04-23T07:08:58.182Z,102112.73
2017-04-23T07:09:56.861Z,102114.87
2017-04-23T07:10:55.349Z,102119.49
2017-04-23T07:11:54.147Z,102117.96
2017-04-23T07:12:52.787Z,102115.72
2017-04-23T07:13:51.450Z,102114.37
2017-04-23T07:14:50.389Z,102119.58
2017-04-23T07:15:49.000Z,102119.50
2017-04-23T07:16:47.556Z,102128.52
2017-04-23T07:17:46.092Z,102120.53
2017-04-23T07:18:44.636Z,102124.84
2017-04-23T07:19:43.331Z,102124.31
2017-04-23T07:20:42.123Z,102118.66
2017-04-23T07:21:41.116Z,102109.11
2017-04-23T07:22:39.692Z,102121.05
2017-04-23T07:23:38.277Z,102122.86
2017-04-23T07:24:36.871Z,102114.37
2017-04-23T07:25:38.119Z,102123.17
2017-04-23T07:26:36.674Z,102120.06
2017-04-23T07:27:35.220Z,102130.84
2017-04-23T07:28:33.756Z,102117.40
2017-04-23T07:29:32.279Z,102122.33
2017-04-23T07:30:30.828Z,102125.52
2017-04-23T07:31:29.376Z,102121.63
2017-04-23T07:32:27.923Z,102120.93
2017-04-23T07:33:26.447Z,102120.52
2017-04-23T07:34:25.046Z,102118.17
2017-04-23T07:35:23.564Z,102120.19
2017-04-23T07:36:22.080Z,102111.16
2017-04-23T07:37:20.948Z,102118.92
2017-04-23T07:38:19.507Z,102118.83
2017-04-23T07:39:18.083Z,102111.97
2017-04-23T07:40:16.603Z,102121.82
2017-04-23T07:41:15.132Z,102120.36
2017-04-23T07:42:13.668Z,102117.70
2017-04-23T07:43:12.525Z,102116.84
2017-04-23T07:44:11.136Z,102124.96
2017-04-23T07:45:09.627Z,102121.15
2017-04-23T07:46:08.143Z,102123.05
2017-04-23T07:47:06.703Z,102124.59
2017-04-23T07:48:05.289Z,102119.53
2017-04-23T07:49:04.030Z,102121.19
2017-04-23T07:50:02.664Z,102128.20
2017-04-23T07:51:01.284Z,102118.54
2017-04-23T07:51:59.936Z,102122.47
2017-04-23T07:52:58.451Z,102125.11
2017-04-23T07:53:57.559Z,102123.76
2017-04-23T07:54:56.105Z,102127.63
2017-04-23T07:55:54.599Z,102123.56
2017-04-23T07:56:53.158Z,102131.97
2017-04-23T07:57:51.805Z,102125.95
2017-04-23T07:58:50.431Z,102129.55
2017-04-23T07:59:49.054Z,102123.78
2017-04-23T08:00:47.750Z,102123.05
2017-04-23T08:01:46.392Z,102113.16
2017-04-23T08:02:44.990Z,102115.63
2017-04-23T08:03:43.520Z,102117.39
2017-04-23T08:04:42.520Z,102122.94
2017-04-23T08:05:41.039Z,102118.48
2017-04-23T08:06:39.607Z,102117.08
2017-04-23T08:07:38.189Z,102117.72
2017-04-23T08:08:36.799Z,102121.97
2017-04-23T08:09:35.332Z,102127.42
2017-04-23T08:10:33.942Z,102122.30
2017-04-23T08:11:32.460Z,102113.31
2017-04-23T08:12:30.995Z,102118.09
2017-04-23T08:13:29.540Z,102122.66
2017-04-23T08:14:28.084Z,102116.05
2017-04-23T08:15:26.970Z,102119.62
2017-04-23T08:16:25.490Z,102119.64
2017-04-23T08:17:24.019Z,102124.38
2017-04-23T08:18:23.864Z,102118.34
2017-04-23T08:19:22.536Z,102118.45
2017-04-23T08:20:21.092Z,102119.12
2017-04-23T08:21:19.655Z,102123.27
2017-04-23T08:22:18.167Z,102119.44
2017-04-23T08:23:16.715Z,102117.70
2017-04-23T08:24:15.264Z,102118.64
2017-04-23T08:25:13.774Z,102132.38
2017-04-23T08:26:12.547Z,102116.94
2017-04-23T08:27:11.079Z,102115.48
2017-04-23T08:28:09.713Z,102118.27
2017-04-23T08:29:08.323Z,102121.66
2017-04-23T08:30:07.089Z,102118.59
2017-04-23T08:31:05.642Z,102124.25
2017-04-23T08:32:04.243Z,102120.33
2017-04-23T08:33:02.757Z,102129.94
2017-04-23T08:34:01.339Z,102124.27
2017-04-23T08:34:59.860Z,102119.41
2017-04-23T08:35:58.422Z,102122.77
2017-04-23T08:36:57.315Z,102126.96
2017-04-23T08:37:55.839Z,102123.74
2017-04-23T08:38:54.359Z,102127.51
2017-04-23T08:39:52.882Z,102123.83
2017-04-23T08:40:51.474Z,102126.13
2017-04-23T08:41:50.058Z,102124.38
2017-04-23T08:42:48.655Z,102123.83
2017-04-23T08:43:47.179Z,102121.11
2017-04-23T08:44:45.735Z,102123.31
2017-04-23T08:45:44.220Z,102125.03
2017-04-23T08:46:42.775Z,102120.06
2017-04-23T08:47:41.335Z,102124.55
2017-04-23T08:48:39.911Z,102123.50
2017-04-23T08:49:38.472Z,102115.25
2017-04-23T08:50:37.062Z,102119.69
2017-04-23T08:51:35.575Z,102119.56
2017-04-23T08:52:34.100Z,102127.24
2017-04-23T08:53:33.017Z,102127.16
2017-04-23T08:54:31.550Z,102129.36
2017-04-23T08:55:30.043Z,102124.20
2017-04-23T08:56:28.563Z,102132.06
2017-04-23T08:57:27.094Z,102126.98
2017-04-23T08:58:25.723Z,102123.86
2017-04-23T08:59:24.640Z,102121.00
2017-04-23T09:00:23.185Z,102126.96
2017-04-23T09:01:21.719Z,102123.91
2017-04-23T09:02:20.284Z,102120.34
2017-04-23T09:03:18.990Z,102125.64
2017-04-23T09:04:17.592Z,102128.05
2017-04-23T09:05:16.312Z,102133.22
2017-04-23T09:06:14.972Z,102122.53
2017-04-23T09:07:13.584Z,102123.79
2017-04-23T09:08:12.207Z,102128.67
2017-04-23T09:09:10.810Z,102130.88
2017-04-23T09:10:09.413Z,102124.02
2017-04-23T09:11:08.120Z,102125.88
2017-04-23T09:12:06.667Z,102127.59
2017-04-23T09:13:05.217Z,102136.81
2017-04-23T09:14:03.808Z,102128.41
2017-04-23T09:15:02.367Z,102129.17
2017-04-23T09:16:01.087Z,102115.41
2017-04-23T09:16:59.724Z,102120.38
2017-04-23T09:17:58.314Z,102111.64
2017-04-23T09:18:56.845Z,102123.59
2017-04-23T09:19:55.367Z,102119.14
2017-04-23T09:20:53.924Z,102121.95
2017-04-23T09:21:52.481Z,102124.77
2017-04-23T09:22:50.996Z,102126.16
2017-04-23T09:23:49.534Z,102123.73
2017-04-23T09:24:48.081Z,102128.48
2017-04-23T09:25:46.634Z,102123.89
2017-04-23T09:26:46.276Z,102121.53
2017-04-23T09:27:44.775Z,102118.59
2017-04-23T09:28:43.312Z,102113.75
2017-04-23T09:29:41.957Z,102118.69
2017-04-23T09:30:40.479Z,102117.94
2017-04-23T09:31:39.021Z,102115.30
2017-04-23T09:32:37.607Z,102108.37
2017-04-23T09:33:36.213Z,102110.75
2017-04-23T09:34:34.753Z,102110.22
2017-04-23T09:35:33.282Z,102114.66
2017-04-23T09:36:31.948Z,102112.66
2017-04-23T09:37:30.734Z,102119.47
2017-04-23T09:38:29.303Z,102119.47
2017-04-23T09:39:27.889Z,102109.80
2017-04-23T09:40:26.500Z,102107.88
2017-04-23T09:41:25.988Z,102107.08
2017-04-23T09:42:24.543Z,102113.87
2017-04-23T09:43:24.807Z,102115.37
2017-04-23T09:44:23.911Z,102117.38
2017-04-23T09:45:22.925Z,102119.69
2017-04-23T09:46:21.472Z,102119.39
2017-04-23T09:47:20.031Z,102128.22
2017-04-23T09:48:18.829Z,102128.33
2017-04-23T09:49:17.432Z,102124.56
2017-04-23T09:50:16.111Z,102128.13
2017-04-23T09:51:14.736Z,102130.31
2017-04-23T09:52:13.390Z,102134.60
2017-04-23T09:53:12.044Z,102130.47
2017-04-23T09:54:10.739Z,102131.19
2017-04-23T09:55:09.433Z,102134.86
2017-04-23T09:56:08.056Z,102126.41
2017-04-23T09:57:06.710Z,102129.78
2017-04-23T09:58:05.392Z,102135.70
2017-04-23T09:59:04.180Z,102131.50
2017-04-23T10:00:02.763Z,102136.05
2017-04-23T10:01:01.449Z,102136.66
2017-04-23T10:02:00.078Z,102130.01
2017-04-23T10:02:58.640Z,102134.21
2017-04-23T10:03:57.432Z,102132.38
2017-04-23T10:04:56.061Z,102133.80
2017-04-23T10:05:54.679Z,102127.59
2017-04-23T10:06:53.243Z,102129.50
2017-04-23T10:07:52.751Z,102124.49
2017-04-23T10:08:51.347Z,102130.16
2017-04-23T10:09:50.103Z,102120.33
2017-04-23T10:10:48.663Z,102121.09
2017-04-23T10:11:47.190Z,102125.08
2017-04-23T10:12:45.807Z,102124.17
2017-04-23T10:13:44.384Z,102126.41
2017-04-23T10:14:43.076Z,102124.94
2017-04-23T10:15:41.732Z,102127.59
2017-04-23T10:16:40.360Z,102123.58
2017-04-23T10:17:38.929Z,102134.05
2017-04-23T10:18:37.612Z,102129.16
2017-04-23T10:19:36.231Z,102123.50
2017-04-23T10:20:35.039Z,102125.00
2017-04-23T10:21:33.632Z,102121.72
2017-04-23T10:22:32.257Z,102124.71
2017-04-23T10:23:30.875Z,102119.47
2017-04-23T10:24:29.582Z,102121.28
2017-04-23T10:25:28.141Z,102117.74
2017-04-23T10:26:26.856Z,102120.50
2017-04-23T10:27:25.495Z,102125.52
2017-04-23T10:28:24.067Z,102114.80
2017-04-23T10:29:22.649Z,102119.91
2017-04-23T10:30:21.303Z,102118.30
2017-04-23T10:31:19.871Z,102120.82
2017-04-23T10:32:18.629Z,102120.17
2017-04-23T10:33:17.259Z,102116.23
2017-04-23T10:34:15.947Z,102114.89
2017-04-23T10:35:14.485Z,102118.72
2017-04-23T10:36:13.056Z,102114.73
2017-04-23T10:37:11.627Z,102119.17
2017-04-23T10:38:10.309Z,102120.89
2017-04-23T10:39:08.860Z,102118.09
2017-04-23T10:40:07.402Z,102118.20
2017-04-23T10:41:06.012Z,102123.42
2017-04-23T10:42:04.583Z,102122.06
2017-04-23T10:43:03.496Z,102112.97
2017-04-23T10:44:02.055Z,102108.52
2017-04-23T10:45:00.646Z,102104.60
2017-04-23T10:45:59.165Z,102109.98
2017-04-23T10:46:57.695Z,102110.03
2017-04-23T10:47:56.200Z,102108.00
2017-04-23T10:48:54.791Z,102110.22
2017-04-23T10:49:53.300Z,102108.11
2017-04-23T10:50:51.989Z,102113.72
2017-04-23T10:51:50.606Z,102110.22
2017-04-23T10:52:49.189Z,102108.07
2017-04-23T10:53:47.780Z,102108.86
2017-04-23T10:54:46.435Z,102105.02
2017-04-23T10:55:45.086Z,102107.30
2017-04-23T10:56:43.761Z,102102.29
2017-04-23T10:57:42.444Z,102108.23
2017-04-23T10:58:41.217Z,102108.92
2017-04-23T10:59:39.747Z,102107.50
2017-04-23T11:00:38.528Z,102110.42
2017-04-23T11:01:37.081Z,102106.07
2017-04-23T11:02:35.619Z,102101.59
2017-04-23T11:03:34.307Z,102101.13
2017-04-23T11:04:33.001Z,102099.22
2017-04-23T11:05:31.635Z,102100.79
2017-04-23T11:06:30.274Z,102107.07
2017-04-23T11:07:28.903Z,102092.68
2017-04-23T11:08:27.563Z,102103.94